createdAt,value
2019-02-28T00:02:14.766Z,34.67
2019-02-28T00:04:46.847Z,34.87
2019-02-28T00:07:23.210Z,31.10
2019-02-28T00:10:13.488Z,33.57
2019-02-28T00:15:44.074Z,33.30
2019-02-28T00:18:18.902Z,31.37
2019-02-28T00:24:14.945Z,28.67
2019-02-28T00:26:48.784Z,32.50
2019-02-28T00:29:26.290Z,32.83
2019-02-28T00:32:04.874Z,32.90
2019-02-28T00:34:39.213Z,32.90
2019-02-28T00:37:17.022Z,29.40
2019-02-28T00:39:50.975Z,30.47
2019-02-28T00:42:27.214Z,33.33
2019-02-28T00:45:02.180Z,33.80
2019-02-28T00:47:38.063Z,34.23
2019-02-28T00:50:10.996Z,34.40
2019-02-28T00:52:41.676Z,33.07
2019-02-28T00:55:15.247Z,35.73
2019-02-28T00:57:46.282Z,31.20
2019-02-28T01:00:37.878Z,34.63
2019-02-28T01:03:12.999Z,36.23
2019-02-28T01:05:46.984Z,29.67
2019-02-28T01:08:39.146Z,39.33
2019-02-28T01:11:13.929Z,32.50
2019-02-28T01:13:47.312Z,39.10
2019-02-28T01:16:28.138Z,35.33
2019-02-28T01:19:03.341Z,34.23
2019-02-28T01:21:57.298Z,38.30
2019-02-28T01:24:36.022Z,33.63
2019-02-28T01:27:17.289Z,36.27
2019-02-28T01:29:54.803Z,37.73
2019-02-28T01:32:35.390Z,37.57
2019-02-28T01:35:21.506Z,36.93
2019-02-28T01:38:02.502Z,35.03
2019-02-28T01:40:37.701Z,33.03
2019-02-28T01:43:11.632Z,36.93
2019-02-28T01:45:44.432Z,36.30
2019-02-28T01:48:26.798Z,41.63
2019-02-28T01:51:12.771Z,38.13
2019-02-28T01:53:55.310Z,39.53
2019-02-28T01:56:30.631Z,39.30
2019-02-28T01:59:11.674Z,37.07
2019-02-28T02:02:06.699Z,39.40
2019-02-28T02:04:43.151Z,41.97
2019-02-28T02:07:26.755Z,39.37
2019-02-28T02:10:09.646Z,43.10
2019-02-28T02:12:45.304Z,45.47
2019-02-28T02:15:24.940Z,41.40
2019-02-28T02:18:02.001Z,43.13
2019-02-28T02:20:48.137Z,44.03
2019-02-28T02:23:23.258Z,45.90
2019-02-28T02:26:03.276Z,45.60
2019-02-28T02:28:40.209Z,45.30
2019-02-28T02:31:13.037Z,45.50
2019-02-28T02:33:51.176Z,41.90
2019-02-28T02:36:21.482Z,42.23
2019-02-28T02:38:56.727Z,44.87
2019-02-28T02:41:33.407Z,42.43
2019-02-28T02:44:12.740Z,42.67
2019-02-28T02:46:47.954Z,48.50
2019-02-28T02:49:26.240Z,45.57
2019-02-28T02:52:15.686Z,47.27
2019-02-28T02:54:52.087Z,46.63
2019-02-28T02:57:32.217Z,48.80
2019-02-28T03:00:13.260Z,46.53
2019-02-28T03:02:47.128Z,53.97
2019-02-28T03:05:22.119Z,47.87
2019-02-28T03:08:07.042Z,53.10
2019-02-28T03:10:47.083Z,52.37
2019-02-28T03:13:21.231Z,50.20
2019-02-28T03:16:00.392Z,49.80
2019-02-28T03:18:37.833Z,51.90
2019-02-28T03:21:15.128Z,51.77
2019-02-28T03:23:44.544Z,56.67
2019-02-28T03:26:41.500Z,54.07
2019-02-28T03:29:12.418Z,53.47
2019-02-28T03:31:56.634Z,54.17
2019-02-28T03:34:21.778Z,56.80
2019-02-28T03:36:56.984Z,59.53
2019-02-28T03:39:35.360Z,59.00
2019-02-28T03:45:09.813Z,58.23
2019-02-28T03:50:55.381Z,63.37
2019-02-28T03:53:27.170Z,64.07
2019-02-28T03:56:05.582Z,64.70
2019-02-28T03:58:44.561Z,61.13
2019-02-28T04:01:17.652Z,69.83
2019-02-28T04:03:58.478Z,70.43
2019-02-28T04:06:30.232Z,67.80
2019-02-28T04:09:07.238Z,72.50
2019-02-28T04:11:41.577Z,67.47
2019-02-28T04:16:59.008Z,73.63
2019-02-28T04:22:27.937Z,73.33
2019-02-28T04:25:06.286Z,71.77
2019-02-28T04:30:43.763Z,73.43
2019-02-28T04:33:29.710Z,76.43
2019-02-28T04:36:03.231Z,74.63
2019-02-28T04:38:39.836Z,71.87
2019-02-28T04:41:10.036Z,69.30
2019-02-28T04:43:46.722Z,71.10
2019-02-28T04:46:28.297Z,70.83
2019-02-28T04:49:11.526Z,71.33
2019-02-28T04:51:44.811Z,75.07
2019-02-28T04:54:27.832Z,69.23
2019-02-28T04:57:09.849Z,71.27
2019-02-28T04:59:54.926Z,74.90
2019-02-28T05:02:26.240Z,73.27
2019-02-28T05:07:53.323Z,73.37
2019-02-28T05:10:32.681Z,82.60
2019-02-28T05:13:07.844Z,82.13
2019-02-28T05:15:41.060Z,71.20
2019-02-28T05:18:17.426Z,80.67
2019-02-28T05:21:00.782Z,77.00
2019-02-28T05:23:39.158Z,72.07
2019-02-28T05:32:21.589Z,80.67
2019-02-28T05:34:58.608Z,77.07
2019-02-28T05:37:30.968Z,89.17
2019-02-28T05:40:06.949Z,89.83
2019-02-28T05:42:36.912Z,83.03
2019-02-28T05:45:11.334Z,84.87
2019-02-28T05:47:47.089Z,82.93
2019-02-28T05:50:25.002Z,92.67
2019-02-28T05:52:58.769Z,88.90
2019-02-28T05:55:33.904Z,88.90
2019-02-28T05:58:17.506Z,90.90
2019-02-28T06:00:44.722Z,84.47
2019-02-28T06:03:17.464Z,93.55
2019-02-28T06:05:49.999Z,89.93
2019-02-28T06:08:26.105Z,89.33
2019-02-28T06:11:00.624Z,95.33
2019-02-28T06:13:31.523Z,88.30
2019-02-28T06:16:04.049Z,96.43
2019-02-28T06:18:37.776Z,95.47
2019-02-28T06:21:11.760Z,100.60
2019-02-28T06:23:42.867Z,96.50
2019-02-28T06:29:29.325Z,95.77
2019-02-28T06:32:02.174Z,100.67
2019-02-28T06:34:33.442Z,102.90
2019-02-28T06:37:10.103Z,107.37
2019-02-28T06:39:41.179Z,109.60
2019-02-28T06:42:11.762Z,98.97
2019-02-28T06:44:46.023Z,105.47
2019-02-28T06:50:12.983Z,101.10
2019-02-28T06:52:41.733Z,112.23
2019-02-28T06:55:13.443Z,107.07
2019-02-28T06:57:47.868Z,109.50
2019-02-28T07:03:12.957Z,103.40
2019-02-28T07:05:49.579Z,97.03
2019-02-28T07:08:24.726Z,97.60
2019-02-28T07:10:56.205Z,108.27
2019-02-28T07:13:27.694Z,96.73
2019-02-28T07:15:59.927Z,87.37
2019-02-28T07:18:31.503Z,103.60
2019-02-28T07:21:07.861Z,101.03
2019-02-28T07:23:37.257Z,97.53
2019-02-28T07:26:10.053Z,95.40
2019-02-28T07:28:39.957Z,78.73
2019-02-28T07:31:12.288Z,100.67
2019-02-28T07:33:44.535Z,85.73
2019-02-28T07:36:23.793Z,90.63
2019-02-28T07:38:57.781Z,74.00
2019-02-28T07:41:28.475Z,84.97
2019-02-28T07:43:59.401Z,87.57
2019-02-28T07:46:29.657Z,83.77
2019-02-28T07:49:01.672Z,91.93
2019-02-28T07:51:32.121Z,92.53
2019-02-28T07:54:02.146Z,84.13
2019-02-28T07:56:32.471Z,84.70
2019-02-28T07:59:05.320Z,80.57
2019-02-28T08:01:35.305Z,67.60
2019-02-28T08:04:05.597Z,71.00
2019-02-28T08:06:36.311Z,88.07
2019-02-28T08:09:09.923Z,66.67
2019-02-28T08:11:42.291Z,75.70
2019-02-28T08:14:13.492Z,71.13
2019-02-28T08:16:43.729Z,63.50
2019-02-28T08:19:14.167Z,67.30
2019-02-28T08:21:47.608Z,60.77
2019-02-28T08:24:18.538Z,57.23
2019-02-28T08:26:50.727Z,54.00
2019-02-28T08:29:19.839Z,54.07
2019-02-28T08:31:50.992Z,61.73
2019-02-28T08:34:23.849Z,56.07
2019-02-28T08:36:55.674Z,55.00
2019-02-28T08:39:26.824Z,56.63
2019-02-28T08:42:02.981Z,62.63
2019-02-28T08:44:31.895Z,65.03
2019-02-28T08:47:02.613Z,61.33
2019-02-28T08:49:32.436Z,53.83
2019-02-28T08:52:02.589Z,52.73
2019-02-28T08:54:34.737Z,49.53
2019-02-28T08:57:06.452Z,55.60
2019-02-28T08:59:37.111Z,58.83
2019-02-28T09:02:09.548Z,46.27
2019-02-28T09:04:41.433Z,43.97
2019-02-28T09:07:20.066Z,48.90
2019-02-28T09:09:51.068Z,51.43
2019-02-28T09:12:33.362Z,44.57
2019-02-28T09:15:03.417Z,50.20
2019-02-28T09:17:33.400Z,51.93
2019-02-28T09:20:07.545Z,48.57
2019-02-28T09:22:38.940Z,49.33
2019-02-28T09:25:22.135Z,43.13
2019-02-28T09:27:56.922Z,42.97
2019-02-28T09:30:38.897Z,37.30
2019-02-28T09:33:09.291Z,40.93
2019-02-28T09:35:45.014Z,42.00
2019-02-28T09:38:14.792Z,48.07
2019-02-28T09:40:45.746Z,40.73
2019-02-28T09:43:18.830Z,41.00
2019-02-28T09:45:52.906Z,37.83
2019-02-28T09:48:26.321Z,44.57
2019-02-28T09:50:59.105Z,41.80
2019-02-28T09:53:31.317Z,41.83
2019-02-28T09:56:08.888Z,37.57
2019-02-28T09:58:35.952Z,32.77
2019-02-28T10:01:16.386Z,30.57
2019-02-28T10:03:46.268Z,37.33
2019-02-28T10:06:16.584Z,30.47
2019-02-28T10:08:50.612Z,33.77
2019-02-28T10:11:24.291Z,41.37
2019-02-28T10:13:58.234Z,42.10
2019-02-28T10:16:30.215Z,47.67
2019-02-28T10:19:01.703Z,49.17
2019-02-28T10:21:36.485Z,40.07
2019-02-28T10:24:08.654Z,41.70
2019-02-28T10:26:38.635Z,40.53
2019-02-28T10:29:13.749Z,39.63
2019-02-28T10:31:44.208Z,42.20
2019-02-28T10:34:14.139Z,35.60
2019-02-28T10:36:49.696Z,33.23
2019-02-28T10:39:27.382Z,38.67
2019-02-28T10:42:01.581Z,31.83
2019-02-28T10:44:32.435Z,31.77
2019-02-28T10:47:05.051Z,33.50
2019-02-28T10:49:35.613Z,28.07
2019-02-28T10:52:08.333Z,26.97
2019-02-28T10:54:38.241Z,23.67
2019-02-28T10:57:09.485Z,21.53
2019-02-28T10:59:41.754Z,16.17
2019-02-28T11:02:13.986Z,18.73
2019-02-28T11:04:48.249Z,23.07
2019-02-28T11:07:18.211Z,21.67
2019-02-28T11:09:48.448Z,15.27
2019-02-28T11:12:23.721Z,16.07
2019-02-28T11:14:55.803Z,11.07
2019-02-28T11:17:30.393Z,16.40
2019-02-28T11:20:03.457Z,17.50
2019-02-28T11:22:46.853Z,14.50
2019-02-28T11:25:22.378Z,12.63
2019-02-28T11:27:57.822Z,11.37
2019-02-28T11:30:31.861Z,12.50
2019-02-28T11:33:04.771Z,18.60
2019-02-28T11:35:35.201Z,12.63
2019-02-28T11:38:07.575Z,12.77
2019-02-28T11:40:43.627Z,8.70
2019-02-28T11:43:15.031Z,9.63
2019-02-28T11:45:49.115Z,11.20
2019-02-28T11:48:29.943Z,9.67
2019-02-28T11:51:01.361Z,13.33
2019-02-28T11:53:32.519Z,12.27
2019-02-28T11:56:06.095Z,6.70
2019-02-28T11:58:42.008Z,8.77
2019-02-28T12:01:16.819Z,10.83
2019-02-28T12:03:54.830Z,8.03
2019-02-28T12:06:28.948Z,9.93
2019-02-28T12:09:04.812Z,8.55
2019-02-28T12:11:40.852Z,19.25
2019-02-28T12:14:13.320Z,7.47
2019-02-28T12:16:45.453Z,8.15
2019-02-28T12:19:36.047Z,7.42
2019-02-28T12:22:12.815Z,6.72
2019-02-28T12:24:48.371Z,8.98
2019-02-28T12:27:21.015Z,7.40
2019-02-28T12:29:53.207Z,7.40
2019-02-28T12:32:26.017Z,7.15
2019-02-28T12:35:03.197Z,6.03
2019-02-28T12:37:37.239Z,5.10
2019-02-28T12:40:13.425Z,7.20
2019-02-28T12:42:50.838Z,6.75
2019-02-28T12:45:35.234Z,6.40
2019-02-28T12:48:08.864Z,6.58
2019-02-28T12:50:46.132Z,5.67
2019-02-28T12:53:25.321Z,7.45
2019-02-28T12:56:03.076Z,5.72
2019-02-28T12:58:39.175Z,6.42
2019-02-28T13:01:09.786Z,4.03
2019-02-28T13:03:47.274Z,4.75
2019-02-28T13:09:16.937Z,4.67
2019-02-28T13:11:57.076Z,6.85
2019-02-28T13:14:40.710Z,6.70
2019-02-28T13:20:32.249Z,2.75
2019-02-28T13:23:12.282Z,3.13
2019-02-28T13:26:00.001Z,4.20
2019-02-28T13:28:46.934Z,4.60
2019-02-28T13:31:27.149Z,3.23
2019-02-28T15:14:15.720Z,2.97
2019-02-28T16:09:54.042Z,3.83
2019-02-28T16:12:38.398Z,4.07
2019-02-28T16:18:12.822Z,8.57
2019-02-28T16:20:56.289Z,3.20
2019-02-28T16:23:32.856Z,6.20
2019-02-28T16:26:18.245Z,4.17
2019-02-28T16:31:47.784Z,6.63
2019-02-28T16:37:28.931Z,3.37
2019-02-28T16:48:53.990Z,6.00
2019-02-28T16:51:30.186Z,7.37
2019-02-28T16:54:01.080Z,8.67
2019-02-28T16:56:38.745Z,8.30
2019-02-28T16:59:16.508Z,8.17
2019-02-28T17:02:08.419Z,11.83
2019-02-28T17:04:51.520Z,15.97
2019-02-28T17:07:24.750Z,19.20
2019-02-28T17:12:53.323Z,19.57
2019-02-28T17:15:30.743Z,26.97
2019-02-28T17:18:13.020Z,25.87
2019-02-28T17:20:50.823Z,28.90
2019-02-28T17:23:42.547Z,28.93
2019-02-28T17:26:14.235Z,31.23
2019-02-28T17:31:50.509Z,31.97
2019-02-28T17:41:44.163Z,32.10
2019-02-28T17:44:37.473Z,31.07
2019-02-28T17:54:05.916Z,26.47
2019-02-28T17:57:17.651Z,26.13
2019-02-28T18:00:30.895Z,32.27
2019-02-28T18:03:26.571Z,28.00
2019-02-28T18:06:35.122Z,25.33
2019-02-28T18:09:17.531Z,28.27
2019-02-28T18:12:40.600Z,30.13
2019-02-28T18:18:45.704Z,24.17
2019-02-28T18:24:42.890Z,29.50
2019-02-28T18:27:37.630Z,27.50
2019-02-28T18:30:36.540Z,31.03
2019-02-28T18:33:19.442Z,32.67
2019-02-28T18:38:55.341Z,43.30
2019-02-28T18:44:31.112Z,36.27
2019-02-28T18:47:13.693Z,39.47
2019-02-28T18:49:57.046Z,30.23
2019-02-28T20:53:58.976Z,20.57
2019-02-28T21:14:17.299Z,34.53
2019-02-28T21:48:55.530Z,25.07
2019-02-28T22:34:46.164Z,26.73
2019-02-28T22:37:31.937Z,21.13
2019-02-28T22:40:15.662Z,20.83
2019-02-28T22:43:07.865Z,19.57
2019-02-28T22:45:42.304Z,17.17
2019-02-28T23:16:10.182Z,12.43
2019-02-28T23:19:10.387Z,13.57
2019-02-28T23:47:10.153Z,22.03
